createdAt,value
2022-09-23T00:01:21.078Z,99647.81
2022-09-23T00:03:51.565Z,99644.38
2022-09-23T00:06:23.661Z,99647.94
2022-09-23T00:08:52.563Z,99639.59
2022-09-23T00:11:24.540Z,99652.44
2022-09-23T00:13:56.705Z,99648.13
2022-09-23T00:16:26.867Z,99639.38
2022-09-23T00:18:54.844Z,99641.13
2022-09-23T00:21:23.189Z,99636.91
2022-09-23T00:23:50.740Z,99637.00
2022-09-23T00:26:20.548Z,99635.16
2022-09-23T00:28:49.373Z,99631.69
2022-09-23T00:31:23.724Z,99635.94
2022-09-23T00:33:59.758Z,99643.94
2022-09-23T00:36:29.415Z,99645.63
2022-09-23T00:38:57.265Z,99648.94
2022-09-23T00:41:26.056Z,99642.00
2022-09-23T00:44:01.286Z,99643.72
2022-09-23T00:46:40.144Z,99648.13
2022-09-23T00:49:14.043Z,99642.97
2022-09-23T00:51:47.462Z,99648.94
2022-09-23T00:54:15.039Z,99653.28
2022-09-23T00:56:42.604Z,99659.19
2022-09-23T00:59:11.049Z,99654.88
2022-09-23T01:01:39.203Z,99655.56
2022-09-23T01:04:08.053Z,99657.28
2022-09-23T01:06:35.813Z,99650.19
2022-09-23T01:09:05.447Z,99658.72
2022-09-23T01:11:54.746Z,99659.59
2022-09-23T01:14:48.401Z,99659.84
2022-09-23T01:17:31.690Z,99659.66
2022-09-23T01:20:26.991Z,99655.47
2022-09-23T01:23:14.232Z,99647.59
2022-09-23T01:26:26.512Z,99658.25
2022-09-23T01:29:33.509Z,99655.72
2022-09-23T01:32:12.737Z,99647.88
2022-09-23T01:34:57.416Z,99661.44
2022-09-23T01:37:37.763Z,99667.44
2022-09-23T01:40:25.945Z,99669.13
2022-09-23T01:42:59.332Z,99672.28
2022-09-23T01:45:36.033Z,99668.69
2022-09-23T01:48:19.903Z,99663.69
2022-09-23T01:50:56.728Z,99670.44
2022-09-23T01:53:35.747Z,99667.09
2022-09-23T01:56:09.497Z,99669.53
2022-09-23T01:58:42.587Z,99660.13
2022-09-23T02:01:16.091Z,99664.38
2022-09-23T02:03:59.686Z,99667.09
2022-09-23T02:06:41.974Z,99673.19
2022-09-23T02:09:14.906Z,99668.00
2022-09-23T02:11:48.201Z,99669.66
2022-09-23T02:14:23.154Z,99663.75
2022-09-23T02:16:57.112Z,99657.53
2022-09-23T02:19:31.806Z,99665.22
2022-09-23T02:22:55.075Z,99673.25
2022-09-23T02:25:29.502Z,99671.41
2022-09-23T02:28:11.773Z,99657.56
2022-09-23T02:30:49.143Z,99666.19
2022-09-23T02:33:38.544Z,99668.78
2022-09-23T02:36:15.333Z,99663.47
2022-09-23T02:38:57.593Z,99671.34
2022-09-23T02:41:37.291Z,99659.31
2022-09-23T02:44:11.791Z,99657.59
2022-09-23T02:46:39.856Z,99658.34
2022-09-23T02:49:16.218Z,99661.97
2022-09-23T02:51:44.695Z,99665.28
2022-09-23T02:54:17.237Z,99654.94
2022-09-23T02:56:44.914Z,99645.34
2022-09-23T02:59:13.095Z,99643.56
2022-09-23T03:02:17.083Z,99655.94
2022-09-23T03:04:47.471Z,99659.31
2022-09-23T03:07:19.814Z,99655.84
2022-09-23T03:10:04.504Z,99653.28
2022-09-23T03:12:39.265Z,99661.97
2022-09-23T03:15:23.270Z,99668.94
2022-09-23T03:17:56.964Z,99668.88
2022-09-23T03:20:46.491Z,99668.03
2022-09-23T03:23:15.554Z,99658.47
2022-09-23T03:25:47.454Z,99669.81
2022-09-23T03:28:20.334Z,99659.41
2022-09-23T03:30:51.162Z,99662.06
2022-09-23T03:33:26.755Z,99661.25
2022-09-23T03:36:25.659Z,99677.25
2022-09-23T03:39:03.864Z,99668.31
2022-09-23T03:41:42.151Z,99666.53
2022-09-23T03:44:10.653Z,99664.03
2022-09-23T03:46:38.205Z,99664.84
2022-09-23T03:49:27.671Z,99657.28
2022-09-23T03:51:56.111Z,99664.16
2022-09-23T03:54:23.523Z,99638.19
2022-09-23T03:56:50.995Z,99654.66
2022-09-23T03:59:18.443Z,99644.22
2022-09-23T04:01:46.298Z,99642.53
2022-09-23T04:04:13.778Z,99651.19
2022-09-23T04:06:41.494Z,99640.88
2022-09-23T04:09:09.188Z,99642.59
2022-09-23T04:11:37.407Z,99650.53
2022-09-23T04:14:05.004Z,99635.72
2022-09-23T04:16:32.471Z,99645.47
2022-09-23T04:18:59.935Z,99634.19
2022-09-23T04:21:27.760Z,99638.38
2022-09-23T04:23:55.133Z,99637.63
2022-09-23T04:26:22.606Z,99641.13
2022-09-23T04:28:50.173Z,99639.41
2022-09-23T04:31:17.764Z,99630.09
2022-09-23T04:33:45.194Z,99631.00
2022-09-23T04:36:12.756Z,99625.94
2022-09-23T04:38:40.266Z,99625.06
2022-09-23T04:41:10.724Z,99610.34
2022-09-23T04:43:38.535Z,99616.56
2022-09-23T04:46:08.143Z,99614.81
2022-09-23T04:48:39.312Z,99606.31
2022-09-23T04:51:15.537Z,99602.78
2022-09-23T04:53:45.051Z,99610.66
2022-09-23T04:56:17.898Z,99596.94
2022-09-23T04:58:46.185Z,99606.47
2022-09-23T05:01:25.384Z,99612.81
2022-09-23T05:03:56.127Z,99605.13
2022-09-23T05:06:24.436Z,99621.88
2022-09-23T05:08:56.066Z,99618.53
2022-09-23T05:11:25.042Z,99616.88
2022-09-23T05:13:54.556Z,99613.63
2022-09-23T05:16:23.700Z,99606.03
2022-09-23T05:18:52.424Z,99608.78
2022-09-23T05:21:24.755Z,99613.25
2022-09-23T05:23:55.349Z,99612.41
2022-09-23T05:26:25.661Z,99616.00
2022-09-23T05:28:54.433Z,99611.66
2022-09-23T05:31:24.577Z,99607.69
2022-09-23T05:34:03.675Z,99589.63
2022-09-23T05:36:37.555Z,99597.78
2022-09-23T05:39:07.816Z,99611.16
2022-09-23T05:41:36.252Z,99599.50
2022-09-23T05:44:04.283Z,99598.88
2022-09-23T05:46:32.271Z,99610.34
2022-09-23T05:49:03.072Z,99586.41
2022-09-23T05:51:32.662Z,99599.69
2022-09-23T05:54:04.275Z,99606.75
2022-09-23T05:56:33.566Z,99601.81
2022-09-23T05:59:02.346Z,99605.47
2022-09-23T06:01:34.057Z,99605.50
2022-09-23T06:04:04.335Z,99596.63
2022-09-23T06:06:35.079Z,99612.97
2022-09-23T06:09:03.545Z,99604.13
2022-09-23T06:11:32.610Z,99607.38
2022-09-23T06:14:03.985Z,99611.56
2022-09-23T06:16:34.365Z,99603.63
2022-09-23T06:19:06.524Z,99600.09
2022-09-23T06:21:37.079Z,99596.53
2022-09-23T06:24:06.516Z,99586.09
2022-09-23T06:26:35.526Z,99594.97
2022-09-23T06:29:04.844Z,99606.53
2022-09-23T06:31:33.191Z,99599.84
2022-09-23T06:34:12.442Z,99620.84
2022-09-23T06:36:44.922Z,99632.91
2022-09-23T06:39:14.380Z,99634.63
2022-09-23T06:41:42.049Z,99628.56
2022-09-23T06:44:13.979Z,99615.56
2022-09-23T06:46:42.005Z,99620.66
2022-09-23T06:49:09.806Z,99613.78
2022-09-23T06:51:37.344Z,99618.22
2022-09-23T06:54:04.892Z,99615.47
2022-09-23T06:56:36.357Z,99609.25
2022-09-23T06:59:09.238Z,99615.91
2022-09-23T07:01:36.811Z,99614.09
2022-09-23T07:04:04.408Z,99594.09
2022-09-23T07:06:31.942Z,99588.81
2022-09-23T07:09:01.143Z,99606.06
2022-09-23T07:11:29.073Z,99614.78
2022-09-23T07:13:56.574Z,99607.81
2022-09-23T07:16:24.272Z,99605.22
2022-09-23T07:18:53.552Z,99605.94
2022-09-23T07:21:21.040Z,99604.84
2022-09-23T07:23:53.825Z,99612.41
2022-09-23T07:26:22.882Z,99617.34
2022-09-23T07:28:56.362Z,99606.09
2022-09-23T07:31:36.425Z,99618.38
2022-09-23T07:34:07.068Z,99610.09
2022-09-23T07:36:37.498Z,99606.03
2022-09-23T07:39:05.563Z,99616.56
2022-09-23T07:41:34.385Z,99606.38
2022-09-23T07:44:03.197Z,99597.13
2022-09-23T07:46:32.956Z,99603.41
2022-09-23T07:49:03.203Z,99610.63
2022-09-23T07:51:38.828Z,99614.31
2022-09-23T07:54:10.115Z,99609.81
2022-09-23T07:56:38.768Z,99607.91
2022-09-23T07:59:09.101Z,99599.09
2022-09-23T08:01:40.300Z,99600.63
2022-09-23T08:04:17.880Z,99598.84
2022-09-23T08:06:50.717Z,99597.88
2022-09-23T08:09:20.668Z,99602.97
2022-09-23T08:11:49.531Z,99604.84
2022-09-23T08:14:22.382Z,99602.31
2022-09-23T08:16:50.855Z,99598.88
2022-09-23T08:19:19.037Z,99594.56
2022-09-23T08:21:47.666Z,99592.09
2022-09-23T08:24:17.817Z,99592.31
2022-09-23T08:26:46.643Z,99588.91
2022-09-23T08:29:18.783Z,99585.63
2022-09-23T08:31:46.876Z,99582.34
2022-09-23T08:34:14.418Z,99591.94
2022-09-23T08:36:41.956Z,99573.72
2022-09-23T08:39:13.767Z,99588.38
2022-09-23T08:41:58.463Z,99597.91
2022-09-23T08:44:33.154Z,99598.75
2022-09-23T08:47:00.474Z,99596.84
2022-09-23T08:49:35.634Z,99591.69
2022-09-23T08:52:17.871Z,99592.59
2022-09-23T08:54:45.526Z,99589.06
2022-09-23T08:57:30.267Z,99607.47
2022-09-23T08:59:59.366Z,99606.41
2022-09-23T09:02:27.819Z,99608.72
2022-09-23T09:05:03.679Z,99621.59
2022-09-23T09:07:37.076Z,99610.22
2022-09-23T09:10:18.267Z,99619.59
2022-09-23T09:13:03.341Z,99609.97
2022-09-23T09:15:31.099Z,99587.41
2022-09-23T09:18:04.424Z,99593.38
2022-09-23T09:20:50.427Z,99577.91
2022-09-23T09:23:25.550Z,99582.25
2022-09-23T09:25:55.817Z,99579.81
2022-09-23T09:28:27.901Z,99584.31
2022-09-23T09:31:00.044Z,99577.72
2022-09-23T09:33:38.444Z,99565.16
2022-09-23T09:36:23.776Z,99550.91
2022-09-23T09:38:53.361Z,99552.72
2022-09-23T09:41:24.694Z,99543.25
2022-09-23T09:43:56.403Z,99546.72
2022-09-23T09:46:54.673Z,99556.31
2022-09-23T09:49:38.137Z,99552.63
2022-09-23T09:52:26.173Z,99561.09
2022-09-23T09:54:54.211Z,99565.25
2022-09-23T09:57:56.398Z,99561.72
2022-09-23T10:00:26.777Z,99566.59
2022-09-23T10:02:59.414Z,99556.84
2022-09-23T10:05:34.595Z,99554.22
2022-09-23T10:08:23.663Z,99564.81
2022-09-23T10:11:16.620Z,99557.19
2022-09-23T10:14:05.366Z,99563.34
2022-09-23T10:16:37.513Z,99568.44
2022-09-23T10:19:27.264Z,99565.06
2022-09-23T10:22:00.993Z,99561.53
2022-09-23T10:24:36.411Z,99559.69
2022-09-23T10:27:08.479Z,99558.84
2022-09-23T10:29:48.218Z,99559.72
2022-09-23T10:32:36.461Z,99566.66
2022-09-23T10:35:09.746Z,99564.03
2022-09-23T10:37:39.103Z,99555.28
2022-09-23T10:40:44.856Z,99555.44
2022-09-23T10:43:56.123Z,99556.38
2022-09-23T10:46:38.462Z,99534.78
2022-09-23T10:49:31.201Z,99534.09
2022-09-23T10:52:09.866Z,99534.00
2022-09-23T10:54:43.978Z,99524.47
2022-09-23T10:57:40.219Z,99533.13
2022-09-23T11:00:41.008Z,99523.81
2022-09-23T11:03:53.065Z,99531.75
2022-09-23T11:06:32.426Z,99526.59
2022-09-23T11:09:03.125Z,99524.97
2022-09-23T11:11:48.767Z,99520.78
2022-09-23T11:14:38.919Z,99509.00
2022-09-23T11:17:37.710Z,99499.72
2022-09-23T11:20:26.169Z,99495.53
2022-09-23T11:23:21.570Z,99492.94
2022-09-23T11:26:13.887Z,99490.34
2022-09-23T11:28:47.268Z,99490.19
2022-09-23T11:31:59.810Z,99478.03
2022-09-23T11:34:42.427Z,99488.44
2022-09-23T11:37:17.413Z,99487.47
2022-09-23T11:40:02.184Z,99484.84
2022-09-23T11:42:40.655Z,99492.53
2022-09-23T11:45:16.560Z,99491.56
2022-09-23T11:47:50.978Z,99479.34
2022-09-23T11:50:32.850Z,99475.84
2022-09-23T11:53:12.458Z,99477.50
2022-09-23T11:55:56.298Z,99497.25
2022-09-23T12:01:37.322Z,99509.94
2022-09-23T12:04:25.987Z,99500.38
2022-09-23T12:07:26.839Z,99495.16
2022-09-23T12:10:05.609Z,99482.22
2022-09-23T12:12:58.548Z,99508.19
2022-09-23T12:16:02.798Z,99519.34
2022-09-23T12:18:49.738Z,99507.13
2022-09-23T12:21:50.187Z,99499.38
2022-09-23T12:24:49.258Z,99494.38
2022-09-23T12:27:32.662Z,99485.09
2022-09-23T12:30:04.872Z,99487.94
2022-09-23T12:32:34.027Z,99487.34
2022-09-23T12:35:02.850Z,99474.50
2022-09-23T12:37:38.112Z,99481.59
2022-09-23T12:40:19.174Z,99473.00
2022-09-23T12:42:47.983Z,99461.72
2022-09-23T12:45:37.457Z,99464.31
2022-09-23T12:48:43.708Z,99452.94
2022-09-23T12:51:18.246Z,99456.19
2022-09-23T12:53:50.762Z,99456.00
2022-09-23T12:56:19.723Z,99456.69
2022-09-23T12:58:47.068Z,99453.91
2022-09-23T13:01:14.451Z,99449.41
2022-09-23T13:04:05.753Z,99446.63
2022-09-23T13:06:41.919Z,99444.78
2022-09-23T13:09:21.134Z,99461.97
2022-09-23T13:11:49.025Z,99448.91
2022-09-23T13:14:27.240Z,99450.59
2022-09-23T13:16:58.395Z,99453.25
2022-09-23T13:19:25.934Z,99455.91
2022-09-23T13:21:53.305Z,99452.59
2022-09-23T13:24:25.069Z,99453.41
2022-09-23T13:26:57.838Z,99451.81
2022-09-23T13:29:42.435Z,99445.00
2022-09-23T13:32:17.947Z,99439.81
2022-09-23T13:35:27.363Z,99441.66
2022-09-23T13:37:55.369Z,99438.00
2022-09-23T13:40:27.276Z,99430.06
2022-09-23T13:42:58.612Z,99435.34
2022-09-23T13:45:27.786Z,99439.53
2022-09-23T13:48:02.486Z,99435.22
2022-09-23T13:50:34.675Z,99436.06
2022-09-23T13:53:08.525Z,99431.66
2022-09-23T13:55:37.711Z,99423.81
2022-09-23T13:58:19.386Z,99426.34
2022-09-23T14:00:49.434Z,99434.00
2022-09-23T14:03:31.187Z,99430.63
2022-09-23T14:06:07.200Z,99425.28
2022-09-23T14:08:34.934Z,99414.94
2022-09-23T14:11:06.310Z,99426.22
2022-09-23T14:13:41.732Z,99425.34
2022-09-23T14:16:14.956Z,99423.53
2022-09-23T14:18:51.703Z,99415.72
2022-09-23T14:21:29.628Z,99415.66
2022-09-23T14:23:57.138Z,99400.75
2022-09-23T14:26:25.331Z,99406.78
2022-09-23T14:28:53.874Z,99397.09
2022-09-23T14:31:21.460Z,99404.81
2022-09-23T14:33:49.042Z,99402.22
2022-09-23T14:36:36.654Z,99409.91
2022-09-23T14:39:12.412Z,99396.09
2022-09-23T14:41:43.631Z,99408.09
2022-09-23T14:44:25.196Z,99408.16
2022-09-23T14:46:57.518Z,99410.56
2022-09-23T14:49:25.956Z,99406.97
2022-09-23T14:51:57.812Z,99410.38
2022-09-23T14:54:40.129Z,99415.56
2022-09-23T14:57:22.903Z,99406.94
2022-09-23T14:59:56.172Z,99399.09
2022-09-23T15:02:39.330Z,99393.81
2022-09-23T15:05:18.065Z,99392.09
2022-09-23T15:07:49.937Z,99381.53
2022-09-23T15:10:27.709Z,99380.63
2022-09-23T15:13:04.685Z,99384.06
2022-09-23T15:15:32.378Z,99387.41
2022-09-23T15:18:19.830Z,99380.53
2022-09-23T15:20:56.034Z,99385.59
2022-09-23T15:23:32.666Z,99387.34
2022-09-23T15:26:06.186Z,99391.44
2022-09-23T15:28:33.616Z,99389.63
2022-09-23T15:31:05.836Z,99391.22
2022-09-23T15:33:35.359Z,99399.81
2022-09-23T15:36:05.233Z,99390.22
2022-09-23T15:38:32.940Z,99398.06
2022-09-23T15:41:00.397Z,99385.91
2022-09-23T15:43:28.034Z,99391.94
2022-09-23T15:46:05.357Z,99396.81
2022-09-23T15:48:43.734Z,99395.09
2022-09-23T15:51:14.913Z,99395.81
2022-09-23T15:53:42.497Z,99383.69
2022-09-23T15:56:09.948Z,99381.78
2022-09-23T15:58:37.339Z,99373.94
2022-09-23T16:01:05.929Z,99387.75
2022-09-23T16:03:33.503Z,99385.13
2022-09-23T16:06:03.294Z,99392.94
2022-09-23T16:08:33.221Z,99394.78
2022-09-23T16:11:01.051Z,99382.72
2022-09-23T16:13:28.587Z,99389.59
2022-09-23T16:15:56.494Z,99389.59
2022-09-23T16:18:23.978Z,99372.31
2022-09-23T16:20:51.515Z,99374.88
2022-09-23T16:23:34.833Z,99379.25
2022-09-23T16:26:24.425Z,99376.81
2022-09-23T16:28:54.420Z,99368.88
2022-09-23T16:31:25.393Z,99377.56
2022-09-23T16:33:53.810Z,99369.66
2022-09-23T16:36:31.187Z,99366.13
2022-09-23T16:39:00.443Z,99359.16
2022-09-23T16:41:31.654Z,99363.47
2022-09-23T16:44:00.997Z,99368.63
2022-09-23T16:46:29.375Z,99363.53
2022-09-23T16:48:58.373Z,99364.34
2022-09-23T16:51:28.856Z,99342.75
2022-09-23T16:53:58.690Z,99338.34
2022-09-23T16:56:29.419Z,99357.22
2022-09-23T16:58:57.213Z,99345.97
2022-09-23T17:01:45.989Z,99351.19
2022-09-23T17:04:15.416Z,99335.84
2022-09-23T17:06:53.075Z,99345.34
2022-09-23T17:09:22.963Z,99349.69
2022-09-23T17:12:04.812Z,99337.59
2022-09-23T17:14:32.409Z,99341.06
2022-09-23T17:16:59.869Z,99335.69
2022-09-23T17:19:27.280Z,99334.88
2022-09-23T17:21:54.758Z,99334.84
2022-09-23T17:24:22.317Z,99335.63
2022-09-23T17:26:53.025Z,99320.03
2022-09-23T17:29:20.780Z,99311.44
2022-09-23T17:31:48.283Z,99301.13
2022-09-23T17:34:16.457Z,99305.44
2022-09-23T17:36:43.864Z,99298.56
2022-09-23T17:39:11.340Z,99308.03
2022-09-23T17:41:39.358Z,99318.34
2022-09-23T17:44:08.166Z,99300.16
2022-09-23T17:46:35.611Z,99301.06
2022-09-23T17:49:04.090Z,99301.06
2022-09-23T17:51:31.665Z,99304.47
2022-09-23T17:53:59.293Z,99301.00
2022-09-23T17:56:27.099Z,99301.00
2022-09-23T17:58:54.677Z,99295.72
2022-09-23T18:01:24.830Z,99301.75
2022-09-23T18:03:59.495Z,99294.00
2022-09-23T18:06:31.773Z,99296.50
2022-09-23T18:09:04.389Z,99301.72
2022-09-23T18:11:37.515Z,99306.91
2022-09-23T18:14:15.387Z,99302.69
2022-09-23T18:16:44.649Z,99296.50
2022-09-23T18:19:14.600Z,99287.84
2022-09-23T18:21:44.763Z,99288.78
2022-09-23T18:27:00.747Z,99282.88
2022-09-23T18:29:28.772Z,99281.97
2022-09-23T18:31:56.460Z,99281.97
2022-09-23T18:34:24.414Z,99272.50
2022-09-23T18:36:52.035Z,99269.03
2022-09-23T18:39:19.468Z,99275.94
2022-09-23T18:41:48.003Z,99265.78
2022-09-23T18:44:16.906Z,99273.47
2022-09-23T18:46:44.926Z,99269.03
2022-09-23T18:49:31.018Z,99266.50
2022-09-23T18:51:58.773Z,99264.00
2022-09-23T18:54:28.577Z,99261.22
2022-09-23T18:56:56.726Z,99259.44
2022-09-23T18:59:28.048Z,99255.94
2022-09-23T19:01:56.493Z,99253.25
2022-09-23T19:04:25.869Z,99245.56
2022-09-23T19:06:56.477Z,99250.81
2022-09-23T19:09:24.284Z,99253.50
2022-09-23T19:11:52.630Z,99254.19
2022-09-23T19:14:20.693Z,99233.56
2022-09-23T19:16:49.492Z,99233.66
2022-09-23T19:19:17.551Z,99235.31
2022-09-23T19:21:44.992Z,99233.44
2022-09-23T19:24:15.994Z,99234.38
2022-09-23T19:26:56.507Z,99236.16
2022-09-23T19:29:24.913Z,99234.44
2022-09-23T19:31:52.331Z,99228.44
2022-09-23T19:34:29.241Z,99221.66
2022-09-23T19:36:57.636Z,99225.94
2022-09-23T19:39:28.384Z,99211.31
2022-09-23T19:41:56.041Z,99221.97
2022-09-23T19:44:25.241Z,99209.72
2022-09-23T19:46:56.446Z,99214.06
2022-09-23T19:49:25.793Z,99214.97
2022-09-23T19:51:55.974Z,99194.94
2022-09-23T19:54:27.002Z,99199.50
2022-09-23T19:56:55.211Z,99195.97
2022-09-23T19:59:22.601Z,99180.59
2022-09-23T20:01:50.143Z,99188.34
2022-09-23T20:04:17.638Z,99177.97
2022-09-23T20:06:46.151Z,99187.47
2022-09-23T20:09:13.814Z,99168.41
2022-09-23T20:11:43.214Z,99166.63
2022-09-23T20:14:12.031Z,99172.66
2022-09-23T20:16:40.461Z,99169.22
2022-09-23T20:19:08.113Z,99160.66
2022-09-23T20:21:42.793Z,99165.00
2022-09-23T20:24:12.092Z,99149.41
2022-09-23T20:26:58.234Z,99156.50
2022-09-23T20:29:25.672Z,99147.81
2022-09-23T20:31:53.132Z,99146.94
2022-09-23T20:34:21.664Z,99134.13
2022-09-23T20:36:49.097Z,99135.00
2022-09-23T20:39:16.516Z,99131.44
2022-09-23T20:41:44.021Z,99125.50
2022-09-23T20:44:12.675Z,99134.06
2022-09-23T20:46:48.348Z,99122.72
2022-09-23T20:49:18.574Z,99121.03
2022-09-23T20:51:48.385Z,99123.59
2022-09-23T20:54:21.535Z,99117.50
2022-09-23T20:56:48.990Z,99117.53
2022-09-23T20:59:17.877Z,99114.91
2022-09-23T21:01:45.911Z,99114.97
2022-09-23T21:04:13.597Z,99102.03
2022-09-23T21:06:41.075Z,99095.38
2022-09-23T21:09:08.843Z,99097.13
2022-09-23T21:11:36.355Z,99092.81
2022-09-23T21:14:04.085Z,99085.91
2022-09-23T21:16:31.892Z,99082.44
2022-09-23T21:18:59.526Z,99083.31
2022-09-23T21:21:27.098Z,99084.09
2022-09-23T21:23:56.492Z,99087.53
2022-09-23T21:26:31.125Z,99068.50
2022-09-23T21:29:00.947Z,99072.94
2022-09-23T21:31:36.819Z,99072.16
2022-09-23T21:34:11.176Z,99066.88
2022-09-23T21:36:41.474Z,99048.75
2022-09-23T21:39:10.614Z,99058.31
2022-09-23T21:41:38.635Z,99056.59
2022-09-23T21:44:08.391Z,99041.91
2022-09-23T21:46:36.535Z,99046.25
2022-09-23T21:49:05.059Z,99048.84
2022-09-23T21:51:43.293Z,99050.44
2022-09-23T21:54:16.034Z,99038.28
2022-09-23T21:56:44.599Z,99040.75
2022-09-23T21:59:12.300Z,99040.72
2022-09-23T22:01:44.532Z,99041.47
2022-09-23T22:04:17.688Z,99027.69
2022-09-23T22:06:45.933Z,99025.00
2022-09-23T22:09:18.966Z,99021.50
2022-09-23T22:12:05.328Z,99015.47
2022-09-23T22:14:32.818Z,99005.00
2022-09-23T22:17:03.819Z,99010.97
2022-09-23T22:19:35.494Z,99007.53
2022-09-23T22:22:07.788Z,99010.19
2022-09-23T22:24:35.406Z,98979.00
2022-09-23T22:27:02.892Z,98979.09
2022-09-23T22:29:48.975Z,98978.22
2022-09-23T22:32:34.691Z,98981.66
2022-09-23T22:35:02.298Z,98965.16
2022-09-23T22:37:36.457Z,98971.22
2022-09-23T22:40:10.506Z,98966.97
2022-09-23T22:42:40.218Z,98955.69
2022-09-23T22:45:09.265Z,98946.06
2022-09-23T22:47:39.215Z,98953.09
2022-09-23T22:50:09.645Z,98956.53
2022-09-23T22:52:37.990Z,98948.66
2022-09-23T22:55:08.235Z,98944.31
2022-09-23T22:57:36.743Z,98942.63
2022-09-23T23:00:06.285Z,98936.53
2022-09-23T23:02:33.911Z,98930.63
2022-09-23T23:05:02.266Z,98924.50
2022-09-23T23:07:32.200Z,98918.53
2022-09-23T23:09:59.570Z,98918.53
2022-09-23T23:12:26.971Z,98909.78
2022-09-23T23:14:54.935Z,98912.47
2022-09-23T23:17:22.315Z,98902.06
2022-09-23T23:19:50.926Z,98907.28
2022-09-23T23:22:18.436Z,98906.44
2022-09-23T23:24:45.891Z,98895.22
2022-09-23T23:27:13.289Z,98888.38
2022-09-23T23:29:40.743Z,98879.72
2022-09-23T23:32:09.831Z,98882.31
2022-09-23T23:34:37.272Z,98875.44
2022-09-23T23:37:04.850Z,98883.19
2022-09-23T23:39:33.837Z,98872.00
2022-09-23T23:42:01.339Z,98863.44
2022-09-23T23:44:31.184Z,98867.13
2022-09-23T23:46:58.646Z,98840.31
2022-09-23T23:49:26.106Z,98850.75
2022-09-23T23:51:53.780Z,98835.28
2022-09-23T23:54:21.202Z,98837.81
2022-09-23T23:56:48.742Z,98838.69
2022-09-23T23:59:16.202Z,98841.31
